FAKM

Kimberley Airport

Kimberley, South Africa
METAR FAKM 210900Z 33008KT CAVOK 17/M00 Q1031
Observed Flight Rules
Jul-21 @ 09:00 UTC (an hour ago) Visual Flight Rules
Wind Visibility Clouds
330° at 8 knots 10,000+ meters
  • Clear skies
Temperatures Readings
Current 17°C / 63°F
Dewpoint 0°C / 32°F
Humidity 32%
Altimeter 30.44" Hg
Pressure 1031 hPa
Elevation 1192
METAR FAKM 210900Z 33008KT CAVOK 17/M00 Q1031
Observed Flight Rules
Jul-21 @ 09:00 UTC
(an hour ago)
VFR
Wind Visibility
330° at 8 knots 10,000+ meters
Clouds
  • Clear skies
Temperature Dewpoint
17°C / 63°F 0°C / 32°F
Humidity Altimeter Pressure
32% 30.44" Hg 1031 hPa